POGODA: Poland

Lotnisko: Rzeszow-Jasionka

METAR KOD: EPRZ


METAR: EPRZ 260630Z 10006KT 0250 R27/0375 FG VV001 00/00 Q1030


BLOK
Pogoda METAR
260630Z
Dzien: 26, Godzina: 06:30 UTC.
10006KT
Wiatr z kierunku 100, o predkosci 11 km/h
0250
Widzialnosc pozioma 250 m.
R27/0375
Widzialnosc na pasie 27 - 375 metrow
FG
mgla
VV001
Widzialnosc pionowa: 30 m.
00/00
Temperatura: powietrze 0°C, punkt rosy 0°C
Q1030
Cisnienie: 1030 hPa

Pogoda na innym lotnisku

Pogoda Gdansk-Rebiechowo WEATHER Poland  
Pogoda Katowice WEATHER Poland  
Pogoda Krakow WEATHER Poland  
Pogoda Poznan WEATHER Poland  
Pogoda Rzeszow-Jasionka WEATHER Poland  
Pogoda Szczecin WEATHER Poland  
Pogoda Warszawa-Okecie WEATHER Poland  
Pogoda Wroclaw Ii WEATHER Poland  

Pogoda w inny kraju

Strona startowa

(C) by GREGOR 2007
Ogłoszenia Towarzyskie